Airfield :
LOGIN :

Register | Disclaimer

   EN    FR    IT 

 










Legend :    VFR   Marginal VFR   IFR   Intensive IFR   Very Intensive IFR
Visi :
Ceiling :
>= 8 km
>= 3000ft
5 to 8 km
1000 to 3000 ft
1500m to 5 km
500 to 1000 ft
800 to 1500m
200 to 500 ft
< 800m
< 200 ft
Symbols :   Thunderstorms  Fog  Heavy snow  Heavy precipitations  Wind > 20 kt
SIGMETs :     Misc.  Thunderstorms  Icing  Turbulence  Mountain Waves  Volcanic Ashes






- Airport Elevation : 146 ft
- IATA code : RKE


EKRK - Roskilde Tune

CURRENT METAR :
  • 050749Z 07013KT 9999 BKN014 BKN063 01/M02 Q1007

EXPIRED METARs :
  • 050720Z AUTO 07012KT 040V100 9999 BKN014/// BKN063/// BKN140/// 01/M02 Q1006
  • 050650Z AUTO 07011KT 040V100 9999 BKN015/// BKN150/// 01/M02 Q1006
  • 050620Z AUTO 07012KT 030V100 9999 FEW016/// BKN150/// 01/M02 Q1006
  • 050550Z AUTO 07013KT 040V100 9999 FEW051/// BKN160/// 01/M02 Q1005
  • 050520Z AUTO 07012KT 040V100 9999 FEW018/// FEW032/// BKN053/// BKN160/// 01/M02 Q1005

TAF AMD TAF EKRK
Valid from the 05 at 07:00 until the 05 at 15:00 UTC


050728Z 0507/0515 07015KT 9999 FEW018
TEMPO 0507/0515 07015G28KT BKN012



MET'MAP, your aeronautical weather chart ! - Copyright ORBIFLY December 2007 - Disclaimer

ORBIFLY MET'MAP TEAM :

Programming & Development : Alexandra Zaïnal
Concept & original design : Baudouin d'Aumeries
Assistance for programming : Marc-Olivier Méhu
Technical & hardware support : Manuel Goepfert

Contact : metmap@orbifly.com




SOURCES & CREDITS :

   NOAA